Time;durP1;ratioP1;P1;durP2;ratioP2;P2;SDS_P1;SDS_P2;PMS_P1;PMS_P2;Temp;Humidity;BMP_temperature;BMP_pressure;BME280_temperature;BME280_humidity;BME280_pressure;Samples;Min_cycle;Max_cycle;Signal;HPM_P1;HPM_P2
2023/11/14 00:00:39;;;;;;;15.73;4.57;;;;;;;12.08;79.94;99160.34;5038680;28;20206;-82
2023/11/14 00:03:06;;;;;;;14.23;3.80;;;;;;;12.12;79.73;99154.91;5038379;28;20253;-83
2023/11/14 00:05:34;;;;;;;14.63;3.70;;;;;;;12.06;79.01;99164.81;5037778;28;20226;-81
2023/11/14 00:08:00;;;;;;;14.27;3.77;;;;;;;12.08;79.53;99168.19;5038731;28;20214;-82
2023/11/14 00:10:27;;;;;;;15.87;4.73;;;;;;;11.98;80.46;99161.69;5038143;28;20214;-82
2023/11/14 00:12:53;;;;;;;17.43;5.27;;;;;;;12.08;80.02;99160.34;5036630;28;20673;-82
2023/11/14 00:15:20;;;;;;;13.33;4.50;;;;;;;11.96;80.82;99151.28;5041384;28;20225;-82
2023/11/14 00:17:49;;;;;;;18.10;4.77;;;;;;;11.78;80.54;99168.63;5057963;28;20209;-82
2023/11/14 00:20:16;;;;;;;17.47;4.70;;;;;;;11.95;80.82;99136.50;5057660;28;20208;-81
2023/11/14 00:22:43;;;;;;;12.23;4.90;;;;;;;12.12;80.52;99135.75;5057458;28;20238;-83
2023/11/14 00:25:10;;;;;;;16.93;5.17;;;;;;;12.07;80.50;99146.44;5058712;28;20229;-81
2023/11/14 00:27:37;;;;;;;14.70;4.63;;;;;;;12.00;80.21;99149.41;5057073;28;20703;-82
2023/11/14 00:30:06;;;;;;;17.97;4.67;;;;;;;12.05;80.29;99136.94;5057038;28;20587;-82
2023/11/14 00:32:32;;;;;;;14.57;5.17;;;;;;;12.04;80.15;99130.03;5058192;28;20204;-82
2023/11/14 00:35:00;;;;;;;22.23;5.37;;;;;;;11.95;80.23;99140.91;5055025;28;20210;-81
2023/11/14 00:37:27;;;;;;;20.53;5.43;;;;;;;11.80;80.69;99124.97;5036725;28;20692;-81
2023/11/14 00:39:54;;;;;;;16.93;4.40;;;;;;;11.94;80.69;99102.59;5039081;28;20213;-83
2023/11/14 00:42:20;;;;;;;18.20;5.60;;;;;;;11.99;80.84;99087.53;5037668;28;20581;-80
2023/11/14 00:44:47;;;;;;;17.07;6.23;;;;;;;11.76;81.43;99089.41;5037064;28;20233;-82
2023/11/14 00:47:13;;;;;;;11.80;4.63;;;;;;;11.78;81.74;99058.00;5037035;28;20210;-82
2023/11/14 00:49:39;;;;;;;13.97;4.80;;;;;;;11.82;81.93;99044.69;5037472;28;20610;-83
2023/11/14 00:52:07;;;;;;;14.60;4.70;;;;;;;11.76;82.03;99050.22;5036407;28;20241;-82
2023/11/14 00:54:34;;;;;;;13.20;4.33;;;;;;;11.87;82.00;99049.69;5036763;28;20213;-80
2023/11/14 00:57:00;;;;;;;14.23;5.20;;;;;;;11.79;81.80;99041.38;5036322;28;20233;-81
2023/11/14 00:59:27;;;;;;;14.70;5.60;;;;;;;11.94;81.63;99042.47;5037623;28;20574;-83
2023/11/14 01:01:54;;;;;;;13.40;4.33;;;;;;;11.94;81.45;99050.31;5037187;28;20565;-83
2023/11/14 01:04:21;;;;;;;15.27;4.60;;;;;;;11.94;81.18;99050.31;5034664;28;20234;-82
2023/11/14 01:06:47;;;;;;;16.87;4.93;;;;;;;11.89;81.37;99051.38;5032875;28;20891;-81
2023/11/14 01:09:15;;;;;;;18.23;5.33;;;;;;;11.98;81.08;99051.84;5036550;28;20690;-82
2023/11/14 01:11:41;;;;;;;12.37;4.70;;;;;;;12.00;80.58;99048.25;5036398;28;20206;-82
2023/11/14 01:14:08;;;;;;;15.13;5.17;;;;;;;12.05;80.69;99043.66;5037058;28;20210;-83
2023/11/14 01:16:35;;;;;;;12.80;4.23;;;;;;;12.14;79.76;99058.06;5036786;28;20641;-82
2023/11/14 01:19:02;;;;;;;11.97;4.17;;;;;;;12.05;80.39;99055.84;5036295;28;20214;-82
2023/11/14 01:21:29;;;;;;;8.37;3.03;;;;;;;12.10;80.01;99062.56;5035747;28;20207;-82
2023/11/14 01:23:55;;;;;;;17.67;4.07;;;;;;;12.07;79.79;99056.63;5052419;28;20630;-84
2023/11/14 01:26:24;;;;;;;12.87;3.53;;;;;;;12.10;80.16;99070.41;5056667;28;20252;-84
2023/11/14 01:28:50;;;;;;;9.47;3.83;;;;;;;12.20;79.96;99073.44;5056978;28;20670;-85
2023/11/14 01:31:21;;;;;;;13.67;4.60;;;;;;;12.26;79.43;99085.41;5056623;28;20207;-81
2023/11/14 01:33:47;;;;;;;15.80;3.83;;;;;;;12.17;79.96;99076.22;5042428;28;20207;-81
2023/11/14 01:36:14;;;;;;;11.33;3.83;;;;;;;11.78;80.10;99084.97;5043278;28;20239;-83
2023/11/14 01:38:40;;;;;;;14.93;4.30;;;;;;;12.10;79.79;99059.13;5057075;28;20616;-82
2023/11/14 01:41:07;;;;;;;20.13;4.37;;;;;;;12.26;79.46;99077.53;5056477;28;20202;-82
2023/11/14 01:43:43;;;;;;;15.03;3.93;;;;;;;12.22;78.83;99094.31;5057015;28;20231;-83
2023/11/14 01:46:10;;;;;;;9.20;3.63;;;;;;;12.15;78.60;99100.75;5056288;28;20580;-83
2023/11/14 01:48:37;;;;;;;16.67;5.13;;;;;;;12.41;78.93;99102.16;5056879;28;20583;-81
2023/11/14 01:51:04;;;;;;;12.30;4.13;;;;;;;12.36;78.48;99106.75;5055162;28;20581;-82
2023/11/14 01:53:30;;;;;;;20.63;4.13;;;;;;;12.44;78.26;99112.44;5056952;28;20572;-83
2023/11/14 01:55:57;;;;;;;12.33;4.33;;;;;;;12.25;78.32;99118.56;5056390;28;20229;-81
2023/11/14 01:58:23;;;;;;;12.03;3.47;;;;;;;12.40;78.35;99131.84;5056397;28;20209;-81
2023/11/14 02:00:52;;;;;;;7.73;3.07;;;;;;;12.49;78.10;99127.00;5055873;28;20687;-83
2023/11/14 02:03:19;;;;;;;12.90;4.17;;;;;;;12.38;78.17;99137.13;5054856;28;20238;-82
2023/11/14 02:05:46;;;;;;;14.43;3.77;;;;;;;12.46;78.10;99134.16;5042200;28;20236;-81
2023/11/14 02:08:13;;;;;;;14.80;4.70;;;;;;;12.21;79.10;99127.47;5055690;28;20232;-84
2023/11/14 02:10:40;;;;;;;15.77;4.27;;;;;;;12.37;79.75;99101.44;5057011;28;20220;-84
2023/11/14 02:13:06;;;;;;;17.67;4.83;;;;;;;12.42;80.32;99064.56;5055918;28;20575;-81
2023/11/14 02:15:33;;;;;;;18.83;4.87;;;;;;;12.20;80.95;99056.91;5056645;28;20226;-82
2023/11/14 02:18:01;;;;;;;15.53;4.87;;;;;;;12.22;81.95;99021.91;5055635;28;20208;-82
2023/11/14 02:20:27;;;;;;;15.40;5.00;;;;;;;12.28;82.52;99015.53;5060551;28;20201;-84
2023/11/14 02:22:54;;;;;;;8.70;3.63;;;;;;;12.26;83.30;98999.06;5060567;28;20205;-82
2023/11/14 02:25:22;;;;;;;14.23;4.80;;;;;;;12.21;82.26;98983.59;5060150;28;20252;-81
2023/11/14 02:27:49;;;;;;;15.67;4.63;;;;;;;12.18;80.92;98998.59;5059258;28;20217;-83
2023/11/14 02:30:15;;;;;;;10.83;4.57;;;;;;;12.04;80.30;99022.78;5041454;28;20206;-81
2023/11/14 02:32:41;;;;;;;15.03;5.07;;;;;;;12.28;80.41;99050.38;5039424;28;20214;-83
2023/11/14 02:35:08;;;;;;;14.87;4.37;;;;;;;12.30;79.47;99089.56;5039438;28;20278;-82
2023/11/14 02:37:35;;;;;;;12.53;3.93;;;;;;;12.16;79.46;99071.06;5056345;28;20210;-82
2023/11/14 02:40:03;;;;;;;17.67;4.60;;;;;;;12.12;78.49;99139.19;5039647;28;20213;-81
2023/11/14 02:42:31;;;;;;;11.83;4.10;;;;;;;12.24;78.82;99135.16;5033923;28;20224;-81
2023/11/14 02:44:58;;;;;;;10.80;3.90;;;;;;;12.11;79.00;99140.13;5044592;28;20249;-82
2023/11/14 02:47:25;;;;;;;11.33;3.50;;;;;;;12.28;78.69;99128.88;5040441;28;20229;-81
2023/11/14 02:49:58;;;;;;;15.83;4.40;;;;;;;12.04;81.01;99078.56;5037627;28;20260;-81
2023/11/14 02:52:24;;;;;;;16.33;4.67;;;;;;;12.20;82.51;99051.69;5060003;28;20220;-83
2023/11/14 02:54:51;;;;;;;12.70;4.80;;;;;;;11.82;84.25;99018.53;5058166;28;20213;-82
2023/11/14 02:57:18;;;;;;;14.17;4.83;;;;;;;11.91;85.05;98947.56;5058571;28;20229;-83
2023/11/14 02:59:46;;;;;;;12.37;4.30;;;;;;;11.88;84.01;98955.50;5059911;28;20206;-82
2023/11/14 03:02:13;;;;;;;11.97;4.30;;;;;;;11.98;83.68;98955.09;5059573;28;20205;-83
2023/11/14 03:04:39;;;;;;;16.47;4.23;;;;;;;11.90;81.85;98987.69;5058914;28;20232;-83
2023/11/14 03:07:05;;;;;;;12.27;4.07;;;;;;;12.03;81.47;99003.66;5040132;28;20712;-83
2023/11/14 03:09:33;;;;;;;11.17;4.57;;;;;;;12.03;81.05;99021.97;5058227;28;20237;-82
2023/11/14 03:11:59;;;;;;;19.43;4.80;;;;;;;12.19;80.85;99034.28;5058390;28;20248;-84
2023/11/14 03:14:26;;;;;;;14.30;4.80;;;;;;;12.04;80.39;99064.66;5058415;28;20717;-82
2023/11/14 03:16:53;;;;;;;12.93;3.87;;;;;;;12.12;80.29;99071.19;5059126;28;20238;-84
2023/11/14 03:19:20;;;;;;;15.33;3.87;;;;;;;12.23;80.79;99075.94;5059324;28;20210;-81
2023/11/14 03:21:47;;;;;;;13.43;4.43;;;;;;;12.23;80.64;99070.69;5057886;28;20209;-82
2023/11/14 03:24:13;;;;;;;14.73;4.20;;;;;;;12.19;81.47;99078.75;5057965;28;20707;-83
2023/11/14 03:26:40;;;;;;;11.23;4.30;;;;;;;12.03;81.91;99058.56;5042715;28;20228;-82
2023/11/14 03:29:10;;;;;;;14.70;4.80;;;;;;;11.97;82.49;99048.41;5058902;28;20213;-83
2023/11/14 03:31:36;;;;;;;11.77;4.90;;;;;;;12.03;82.59;99011.50;5047702;28;20760;-83
2023/11/14 03:34:05;;;;;;;9.50;4.20;;;;;;;11.94;82.13;99025.00;5038801;28;20210;-84
2023/11/14 03:36:31;;;;;;;12.73;3.73;;;;;;;12.08;81.79;99012.09;5040093;28;20257;-83
2023/11/14 03:38:58;;;;;;;16.33;3.90;;;;;;;12.11;81.23;99026.81;5059065;28;20701;-83
2023/11/14 03:41:24;;;;;;;22.70;5.10;;;;;;;11.98;81.29;99026.53;5058053;28;20202;-82
2023/11/14 03:43:50;;;;;;;11.23;4.70;;;;;;;11.98;80.46;99063.16;5056746;28;20720;-84
2023/11/14 03:46:17;;;;;;;9.50;3.93;;;;;;;12.06;80.36;99054.97;5057558;28;20258;-82
2023/11/14 03:48:43;;;;;;;14.70;4.40;;;;;;;12.10;79.64;99098.34;5057950;28;20215;-84
2023/11/14 03:51:11;;;;;;;13.47;4.33;;;;;;;12.30;79.42;99094.78;5058593;28;20205;-84
2023/11/14 03:53:38;;;;;;;13.23;4.27;;;;;;;12.22;79.46;99116.09;5057381;28;20203;-83
2023/11/14 03:56:05;;;;;;;13.67;4.70;;;;;;;12.21;79.47;99124.00;5057756;28;20226;-84
2023/11/14 03:58:32;;;;;;;14.73;4.57;;;;;;;12.08;80.02;99123.72;5058029;28;20237;-82
2023/11/14 04:00:59;;;;;;;15.97;4.80;;;;;;;12.16;79.87;99107.69;5058070;28;20202;-84
2023/11/14 04:03:25;;;;;;;14.33;3.67;;;;;;;12.19;78.93;99123.22;5057501;28;20227;-83
2023/11/14 04:05:51;;;;;;;13.87;4.03;;;;;;;12.15;80.39;99114.69;5052714;28;20829;-84
2023/11/14 04:08:19;;;;;;;11.20;4.60;;;;;;;11.98;81.70;99107.63;5057289;28;20208;-83
2023/11/14 04:10:46;;;;;;;13.87;4.23;;;;;;;11.83;83.07;99075.16;5057167;28;20207;-83
2023/11/14 04:13:12;;;;;;;10.20;4.00;;;;;;;11.79;86.50;99017.84;5056048;28;20211;-84
2023/11/14 04:15:39;;;;;;;15.57;4.63;;;;;;;11.79;86.55;98973.41;5052865;28;20222;-83
2023/11/14 04:18:05;;;;;;;17.03;5.17;;;;;;;11.83;87.37;98939.22;5037780;28;20241;-83
2023/11/14 04:20:32;;;;;;;9.80;4.93;;;;;;;11.88;87.37;98934.59;5037434;28;20198;-81
2023/11/14 04:22:58;;;;;;;19.80;5.30;;;;;;;11.68;88.50;98916.41;5036783;28;20210;-82
2023/11/14 04:25:26;;;;;;;15.10;5.23;;;;;;;11.80;87.60;98896.69;5031146;28;20225;-80
2023/11/14 04:27:52;;;;;;;15.30;4.30;;;;;;;11.70;87.08;98917.19;5038164;28;20219;-83
2023/11/14 04:30:19;;;;;;;13.07;5.23;;;;;;;11.80;87.04;98926.28;5036930;28;20234;-84
2023/11/14 04:32:45;;;;;;;11.83;4.70;;;;;;;11.86;86.22;98931.19;5036088;28;20209;-83
2023/11/14 04:35:12;;;;;;;15.67;4.70;;;;;;;11.83;85.46;98947.06;5036818;28;20227;-82
2023/11/14 04:37:38;;;;;;;14.47;5.03;;;;;;;12.05;85.68;98946.00;5037110;28;20208;-83
2023/11/14 04:40:06;;;;;;;14.60;5.13;;;;;;;11.83;85.76;98977.56;5036910;28;20583;-83
2023/11/14 04:42:34;;;;;;;15.10;4.40;;;;;;;12.10;84.87;98973.63;5036548;28;20609;-83
2023/11/14 04:45:01;;;;;;;14.20;3.87;;;;;;;11.91;84.03;98992.00;5037344;28;20229;-82
2023/11/14 04:47:27;;;;;;;13.93;4.23;;;;;;;12.07;83.67;98999.09;5037676;28;20656;-83
2023/11/14 04:49:54;;;;;;;10.87;4.03;;;;;;;12.04;82.87;99012.34;5056965;28;20661;-83
2023/11/14 04:52:21;;;;;;;14.07;4.77;;;;;;;12.06;82.93;99019.19;5055138;28;20205;-83
2023/11/14 04:54:48;;;;;;;14.73;4.17;;;;;;;12.03;82.49;99040.25;5036752;28;20685;-81
2023/11/14 04:57:15;;;;;;;11.23;4.27;;;;;;;12.00;83.03;99063.94;5044688;28;20215;-84
2023/11/14 04:59:42;;;;;;;13.33;3.90;;;;;;;12.04;84.01;99028.88;5056355;28;20699;-82
2023/11/14 05:02:10;;;;;;;11.00;3.67;;;;;;;11.93;84.02;99004.97;5056581;28;20197;-81
2023/11/14 05:04:36;;;;;;;18.20;5.47;;;;;;;12.17;83.93;99023.03;5056803;28;20269;-84
2023/11/14 05:07:03;;;;;;;13.93;4.20;;;;;;;11.96;83.78;99009.25;5056083;28;20232;-80
2023/11/14 05:09:30;;;;;;;13.77;5.13;;;;;;;12.15;83.46;99009.19;5057022;28;20203;-82
2023/11/14 05:11:56;;;;;;;15.70;6.07;;;;;;;12.01;83.99;99010.72;5056634;28;20220;-82
2023/11/14 05:14:23;;;;;;;13.37;5.07;;;;;;;12.01;85.01;99002.88;5056654;28;20203;-81
2023/11/14 05:16:54;;;;;;;13.73;4.80;;;;;;;11.98;87.23;98968.19;5056661;28;20229;-83
2023/11/14 05:19:20;;;;;;;18.57;5.07;;;;;;;11.80;88.91;98934.13;5056814;28;20203;-80
2023/11/14 05:21:46;;;;;;;22.83;6.60;;;;;;;11.84;89.08;98912.13;5056606;28;20577;-84
2023/11/14 05:24:13;;;;;;;14.53;4.80;;;;;;;11.64;91.70;98858.22;5049662;28;20234;-82
2023/11/14 05:26:39;;;;;;;12.40;5.40;;;;;;;11.59;93.06;98822.75;5034961;28;20235;-82
2023/11/14 05:29:06;;;;;;;12.57;4.93;;;;;;;11.68;92.71;98802.25;5038741;28;20202;-84
2023/11/14 05:31:34;;;;;;;18.23;6.10;;;;;;;11.61;92.81;98795.63;5036982;28;20202;-84
2023/11/14 05:34:02;;;;;;;21.07;5.57;;;;;;;11.63;92.29;98788.53;5036175;28;20203;-83
2023/11/14 05:36:28;;;;;;;13.57;4.43;;;;;;;11.64;93.57;98771.13;5085817;22;20226;-82
2023/11/14 05:38:55;;;;;;;20.63;4.83;;;;;;;11.46;94.55;98775.50;5053202;28;20207;-82
2023/11/14 05:41:21;;;;;;;18.10;5.77;;;;;;;11.57;93.71;98754.88;5069365;28;20207;-81
2023/11/14 05:43:48;;;;;;;17.17;6.00;;;;;;;11.54;94.05;98752.44;5066422;28;20239;-82
2023/11/14 05:46:15;;;;;;;20.47;6.47;;;;;;;11.71;93.63;98731.53;5052073;28;20304;-82
2023/11/14 05:48:41;;;;;;;16.10;5.43;;;;;;;11.60;92.45;98754.75;5052761;28;20225;-82
2023/11/14 05:51:09;;;;;;;11.33;4.97;;;;;;;11.66;91.14;98764.03;5053224;28;20229;-81
2023/11/14 05:53:35;;;;;;;16.27;4.43;;;;;;;11.75;90.11;98800.16;5053088;28;20212;-82
2023/11/14 05:56:02;;;;;;;11.73;4.33;;;;;;;11.69;90.18;98818.75;5048252;28;20221;-81
2023/11/14 05:58:28;;;;;;;11.17;4.53;;;;;;;11.79;88.90;98838.28;5055278;28;20208;-82
2023/11/14 06:00:55;;;;;;;14.20;4.03;;;;;;;11.71;88.67;98854.38;5055610;28;20209;-82
2023/11/14 06:03:21;;;;;;;16.40;5.73;;;;;;;11.71;88.34;98851.78;5055704;28;20213;-83
2023/11/14 06:05:48;;;;;;;18.53;4.93;;;;;;;11.82;87.86;98877.38;5055015;28;20262;-81
2023/11/14 06:08:16;;;;;;;16.97;5.50;;;;;;;11.82;87.47;98898.28;5054990;28;20206;-82
2023/11/14 06:10:42;;;;;;;21.10;6.60;;;;;;;11.70;87.16;98919.81;5055629;28;20214;-82
2023/11/14 06:13:08;;;;;;;11.30;4.07;;;;;;;11.75;86.78;98917.78;5047053;28;20197;-81
2023/11/14 06:15:35;;;;;;;14.47;4.83;;;;;;;11.77;86.47;98928.19;5055376;28;20229;-81
2023/11/14 06:18:01;;;;;;;13.10;4.60;;;;;;;11.88;85.86;98916.28;5055780;28;20206;-82
2023/11/14 06:20:28;;;;;;;11.50;4.20;;;;;;;11.86;85.70;98936.44;5047435;28;20207;-81
2023/11/14 06:22:54;;;;;;;12.60;3.97;;;;;;;11.87;84.88;98964.28;5054401;28;20202;-81
2023/11/14 06:25:22;;;;;;;11.67;4.73;;;;;;;11.93;85.14;98994.53;5055608;28;20746;-81
2023/11/14 06:27:48;;;;;;;11.67;4.23;;;;;;;11.84;84.61;98974.88;5054558;28;20217;-81
2023/11/14 06:30:16;;;;;;;20.60;4.70;;;;;;;11.96;84.32;98988.31;5045169;28;20205;-83
2023/11/14 06:32:42;;;;;;;10.47;4.07;;;;;;;11.92;83.90;99011.16;5054768;28;20250;-83
2023/11/14 06:35:09;;;;;;;12.13;4.10;;;;;;;11.94;84.22;99025.00;5055862;28;20201;-84
2023/11/14 06:37:36;;;;;;;9.70;4.20;;;;;;;11.96;83.65;99038.84;5055587;28;20210;-82
2023/11/14 06:40:03;;;;;;;12.03;4.33;;;;;;;12.12;83.69;99045.03;5056566;28;20209;-83
2023/11/14 06:42:31;;;;;;;11.33;3.97;;;;;;;12.10;83.12;99078.25;5050914;28;20205;-84
2023/11/14 06:44:57;;;;;;;15.40;3.90;;;;;;;11.88;83.76;99077.56;5056082;28;20225;-83
2023/11/14 06:47:24;;;;;;;12.83;4.63;;;;;;;11.94;83.57;99089.53;5058202;28;20229;-82
2023/11/14 06:49:50;;;;;;;9.93;3.53;;;;;;;11.94;83.63;99100.84;5056004;28;20213;-82
2023/11/14 06:52:17;;;;;;;12.53;3.27;;;;;;;11.93;83.31;99088.66;5046133;28;20202;-82
2023/11/14 06:54:43;;;;;;;12.33;4.33;;;;;;;11.91;84.27;99082.66;5068299;28;20209;-83
2023/11/14 06:57:09;;;;;;;7.47;3.67;;;;;;;12.03;83.97;99070.78;5072579;28;20217;-80
2023/11/14 06:59:38;;;;;;;14.30;3.93;;;;;;;12.06;83.81;99065.41;5069733;28;20228;-82
2023/11/14 07:02:05;;;;;;;8.60;3.90;;;;;;;11.98;84.07;99067.56;5058929;28;20281;-81
2023/11/14 07:04:32;;;;;;;10.80;3.87;;;;;;;12.07;84.06;99070.59;5036073;28;20223;-83
2023/11/14 07:06:59;;;;;;;11.57;3.80;;;;;;;12.07;84.61;99083.66;5035878;28;20585;-82
2023/11/14 07:09:25;;;;;;;14.27;4.37;;;;;;;11.86;84.85;99082.84;5052770;28;20212;-80
2023/11/14 07:11:54;;;;;;;12.90;4.67;;;;;;;11.97;85.25;99066.72;5046497;28;20214;-81
2023/11/14 07:14:22;;;;;;;8.03;3.90;;;;;;;11.99;85.38;99058.78;5053815;28;20202;-81
2023/11/14 07:16:50;;;;;;;11.67;4.03;;;;;;;11.99;85.31;99069.22;5057778;28;20252;-81
2023/11/14 07:19:17;;;;;;;12.77;4.57;;;;;;;12.08;85.55;99071.44;5057841;28;20212;-82
2023/11/14 07:21:45;;;;;;;10.30;3.93;;;;;;;12.05;85.42;99075.03;5058100;28;20205;-81
2023/11/14 07:24:12;;;;;;;10.10;4.03;;;;;;;12.06;85.78;99065.41;5058839;28;20219;-83
2023/11/14 07:26:38;;;;;;;12.27;4.70;;;;;;;12.08;86.12;99056.56;5058581;28;20287;-81
2023/11/14 07:29:05;;;;;;;8.83;3.93;;;;;;;12.05;85.90;99066.31;5057500;28;20201;-81
2023/11/14 07:31:32;;;;;;;9.27;3.90;;;;;;;11.86;87.49;99043.63;5048843;28;20211;-82
2023/11/14 07:34:00;;;;;;;11.53;4.83;;;;;;;11.91;87.57;99035.59;5049198;28;20218;-83
2023/11/14 07:36:26;;;;;;;13.90;5.27;;;;;;;11.92;87.31;99040.75;5056583;28;20606;-82
2023/11/14 07:38:53;;;;;;;12.10;4.97;;;;;;;11.96;87.03;99038.84;5049305;28;20201;-84
2023/11/14 07:41:20;;;;;;;13.07;4.60;;;;;;;11.97;87.37;99029.22;5056848;28;20203;-84
2023/11/14 07:43:46;;;;;;;13.70;4.97;;;;;;;12.12;86.62;99041.59;5057523;28;20213;-82
2023/11/14 07:46:13;;;;;;;10.93;4.73;;;;;;;12.12;86.60;99054.66;5063929;28;20711;-83
2023/11/14 07:48:39;;;;;;;15.17;5.57;;;;;;;12.16;85.84;99071.91;5048110;28;20214;-83
2023/11/14 07:51:07;;;;;;;18.93;4.77;;;;;;;12.21;85.06;99085.63;5056862;28;20202;-84
2023/11/14 07:53:34;;;;;;;15.63;5.77;;;;;;;12.25;84.28;99095.03;5050993;28;20210;-82
2023/11/14 07:56:00;;;;;;;14.50;3.67;;;;;;;12.21;85.05;99098.72;5059459;28;20222;-84
2023/11/14 07:58:29;;;;;;;12.40;4.77;;;;;;;12.12;85.41;99099.13;5058698;28;20205;-83
2023/11/14 08:00:56;;;;;;;20.20;4.97;;;;;;;12.14;85.52;99094.66;5058175;28;20202;-84
2023/11/14 08:03:23;;;;;;;13.97;3.63;;;;;;;12.15;84.64;99116.44;5049847;28;20234;-82
2023/11/14 08:05:50;;;;;;;11.57;4.07;;;;;;;12.21;84.50;99109.16;5057782;28;20261;-82
2023/11/14 08:08:18;;;;;;;15.80;5.00;;;;;;;12.20;84.47;99115.31;5057618;28;20229;-83
2023/11/14 08:10:44;;;;;;;18.43;4.43;;;;;;;12.32;84.29;99134.81;5050112;28;20222;-82
2023/11/14 08:13:11;;;;;;;16.37;5.83;;;;;;;12.42;83.65;99133.44;5053488;28;20671;-82
2023/11/14 08:15:38;;;;;;;13.00;4.40;;;;;;;12.33;83.38;99144.38;5058040;28;20613;-82
2023/11/14 08:18:05;;;;;;;14.57;4.53;;;;;;;12.41;82.75;99167.56;5057896;28;20250;-84
2023/11/14 08:20:31;;;;;;;9.60;4.33;;;;;;;12.44;83.22;99170.03;5043923;28;20205;-83
2023/11/14 08:22:58;;;;;;;14.57;4.83;;;;;;;12.57;82.62;99186.03;5039354;28;20674;-83
2023/11/14 08:25:26;;;;;;;11.70;4.50;;;;;;;12.53;82.92;99180.06;5055507;28;20810;-81
2023/11/14 08:27:52;;;;;;;16.43;4.40;;;;;;;12.64;82.36;99182.16;5052117;28;20585;-81
2023/11/14 08:30:18;;;;;;;13.97;4.00;;;;;;;12.62;81.61;99202.34;5050184;28;20213;-82
2023/11/14 08:32:47;;;;;;;18.30;4.97;;;;;;;12.63;81.43;99212.75;5057523;28;20685;-83
2023/11/14 08:35:13;;;;;;;11.07;4.40;;;;;;;12.62;81.92;99224.13;5055513;28;20221;-81
2023/11/14 08:37:40;;;;;;;16.73;5.90;;;;;;;12.65;81.26;99224.00;5055682;28;20209;-83
2023/11/14 08:40:09;;;;;;;12.77;5.23;;;;;;;12.59;80.96;99252.25;5055692;28;20204;-81
2023/11/14 08:42:38;;;;;;;12.68;6.30;;;;;;;12.50;81.81;99248.25;5050659;28;20436;-85
2023/11/14 08:45:05;;;;;;;10.90;4.80;;;;;;;12.67;80.96;99255.34;5053718;28;20243;-83
2023/11/14 08:47:32;;;;;;;12.63;4.97;;;;;;;12.70;81.01;99253.44;5054563;28;20810;-82
2023/11/14 08:49:58;;;;;;;19.10;5.77;;;;;;;12.80;81.20;99253.81;5053826;28;20282;-84
2023/11/14 08:52:25;;;;;;;15.27;4.97;;;;;;;12.79;80.63;99261.78;5052083;28;20575;-83
2023/11/14 08:54:51;;;;;;;14.73;5.00;;;;;;;12.75;80.45;99270.69;5047687;28;20650;-84
2023/11/14 08:57:18;;;;;;;16.30;5.23;;;;;;;12.57;80.11;99291.56;5054545;28;20695;-82
2023/11/14 08:59:46;;;;;;;11.07;4.80;;;;;;;12.69;80.96;99270.06;5054134;28;20221;-82
2023/11/14 09:02:12;;;;;;;14.60;5.73;;;;;;;12.52;81.12;99273.44;5056233;28;20201;-83
2023/11/14 09:04:40;;;;;;;9.33;4.73;;;;;;;12.57;80.63;99278.47;5057106;28;20275;-80
2023/11/14 09:07:07;;;;;;;13.70;3.87;;;;;;;12.74;80.94;99271.59;5053951;28;20235;-83
2023/11/14 09:09:33;;;;;;;12.37;4.60;;;;;;;12.52;81.88;99270.81;5056642;28;20203;-83
2023/11/14 09:12:00;;;;;;;11.93;3.83;;;;;;;12.75;82.74;99239.28;5056870;28;20286;-84
2023/11/14 09:14:26;;;;;;;10.47;4.27;;;;;;;12.80;82.61;99225.03;5059762;28;20197;-82
2023/11/14 09:16:55;;;;;;;15.27;5.23;;;;;;;12.66;82.50;99228.28;5058251;28;20229;-81
2023/11/14 09:19:22;;;;;;;13.93;6.07;;;;;;;12.71;83.59;99202.75;5046563;28;20208;-84
2023/11/14 09:21:49;;;;;;;13.27;4.43;;;;;;;12.67;82.71;99226.53;5059339;28;20210;-85
2023/11/14 09:24:15;;;;;;;12.50;4.97;;;;;;;12.73;82.73;99233.28;5057347;28;20210;-83
2023/11/14 09:26:42;;;;;;;15.53;5.13;;;;;;;12.62;82.29;99220.66;5060882;28;20244;-84
2023/11/14 09:29:08;;;;;;;11.67;4.73;;;;;;;12.52;82.79;99231.56;5055268;28;20229;-84
2023/11/14 09:31:35;;;;;;;14.80;4.77;;;;;;;12.72;82.97;99232.41;5055677;28;20690;-83
2023/11/14 09:34:04;;;;;;;17.97;6.27;;;;;;;12.84;83.24;99230.97;5054466;28;20204;-82
2023/11/14 09:36:30;;;;;;;17.43;5.80;;;;;;;12.54;83.43;99231.50;5054656;28;20227;-83
2023/11/14 09:38:56;;;;;;;13.33;4.80;;;;;;;12.48;84.49;99213.44;5057411;28;20212;-84
2023/11/14 09:41:23;;;;;;;16.03;5.83;;;;;;;12.56;84.86;99197.41;5057724;28;20207;-84
2023/11/14 09:43:50;;;;;;;15.77;5.90;;;;;;;12.57;84.73;99189.47;5057333;28;20217;-83
2023/11/14 09:46:17;;;;;;;16.67;4.97;;;;;;;12.66;83.56;99201.28;5054623;28;20580;-82
2023/11/14 09:48:45;;;;;;;19.97;4.90;;;;;;;12.56;84.07;99216.56;5053418;28;20212;-82
2023/11/14 09:51:15;;;;;;;15.67;4.53;;;;;;;12.61;83.95;99209.34;5054791;28;20288;-82
2023/11/14 09:53:44;;;;;;;11.63;5.47;;;;;;;12.61;84.41;99211.13;5053273;28;20693;-81
2023/11/14 09:56:11;;;;;;;16.17;5.30;;;;;;;12.43;85.18;99194.53;5055524;28;20226;-82
2023/11/14 09:58:37;;;;;;;11.27;4.30;;;;;;;12.77;85.89;99169.34;5054238;28;20591;-84
2023/11/14 10:01:04;;;;;;;14.63;4.67;;;;;;;12.62;87.04;99144.75;5054965;28;20210;-84
2023/11/14 10:03:31;;;;;;;11.10;5.07;;;;;;;12.32;89.69;99101.63;5059028;28;20225;-86
2023/11/14 10:06:02;;;;;;;18.87;5.93;;;;;;;12.27;89.60;99090.56;5058692;28;20235;-82
2023/11/14 10:08:32;;;;;;;18.43;6.23;;;;;;;12.40;88.64;99072.50;5052342;28;20205;-83
2023/11/14 10:11:08;;;;;;;12.73;4.70;;;;;;;12.70;88.32;99079.75;5053574;28;20206;-84
2023/11/14 10:13:35;;;;;;;13.67;4.50;;;;;;;12.79;86.83;99102.88;5046120;28;20238;-84
2023/11/14 10:16:16;;;;;;;12.23;4.43;;;;;;;12.84;86.53;99129.72;5041455;28;21754;-84
2023/11/14 10:18:43;;;;;;;19.03;4.20;;;;;;;12.70;85.78;99156.56;5050775;28;20206;-84
2023/11/14 10:21:23;;;;;;;11.67;4.27;;;;;;;12.36;84.46;99175.63;5054882;28;20217;-83
2023/11/14 10:23:51;;;;;;;17.20;4.60;;;;;;;12.79;83.85;99185.84;5053824;28;20737;-84
2023/11/14 10:26:17;;;;;;;17.37;5.43;;;;;;;12.83;83.59;99208.34;5056451;28;20231;-84
2023/11/14 10:28:51;;;;;;;14.13;5.57;;;;;;;12.83;83.59;99211.78;5056504;28;20206;-84
2023/11/14 10:31:32;;;;;;;11.37;4.23;;;;;;;13.07;83.48;99220.22;5056327;28;20207;-84
2023/11/14 10:33:59;;;;;;;16.73;4.67;;;;;;;13.02;81.84;99247.56;5047585;28;20203;-82
2023/11/14 10:36:25;;;;;;;10.17;4.40;;;;;;;13.02;82.33;99263.28;5036653;28;20247;-85
2023/11/14 10:39:04;;;;;;;16.17;4.93;;;;;;;13.08;81.73;99249.88;5054711;28;20207;-83
2023/11/14 10:41:32;;;;;;;15.37;6.00;;;;;;;13.00;81.29;99273.88;5060206;28;20211;-80
2023/11/14 10:44:29;;;;;;;11.00;4.67;;;;;;;12.55;81.40;99272.47;5060115;28;20207;-81
2023/11/14 10:46:58;;;;;;;10.90;4.10;;;;;;;12.68;83.43;99259.66;5060090;28;20696;-81
2023/11/14 10:49:31;;;;;;;10.63;4.40;;;;;;;12.75;83.91;99239.28;5060942;28;20217;-84
2023/11/14 10:51:57;;;;;;;11.90;4.53;;;;;;;12.66;83.54;99237.91;5060368;28;20714;-84
2023/11/14 10:54:28;;;;;;;13.53;4.93;;;;;;;12.90;83.35;99230.66;5052975;28;20208;-83
2023/11/14 10:56:56;;;;;;;14.57;4.70;;;;;;;12.89;82.02;99237.69;5061250;28;20249;-84
2023/11/14 10:59:22;;;;;;;12.90;4.90;;;;;;;13.01;82.37;99238.88;5053087;28;20600;-85
2023/11/14 11:01:49;;;;;;;11.83;4.10;;;;;;;12.94;82.04;99244.47;5059863;28;20210;-85
2023/11/14 11:04:17;;;;;;;15.20;4.60;;;;;;;13.07;81.07;99261.31;5058769;28;20211;-83
2023/11/14 11:06:45;;;;;;;18.87;5.13;;;;;;;13.18;80.99;99273.88;5048438;28;20241;-84
2023/11/14 11:09:11;;;;;;;13.13;5.10;;;;;;;13.18;80.71;99263.38;5045264;28;20203;-84
2023/11/14 11:11:44;;;;;;;12.77;4.90;;;;;;;12.97;81.13;99281.84;5053842;28;20210;-84
2023/11/14 11:14:14;;;;;;;12.53;4.70;;;;;;;13.08;82.28;99271.72;5061237;28;20209;-83
2023/11/14 11:16:44;;;;;;;19.53;6.73;;;;;;;13.24;80.70;99287.56;5061404;28;20229;-84
2023/11/14 11:19:17;;;;;;;10.60;5.20;;;;;;;13.15;80.29;99306.31;5052374;28;20716;-85
2023/11/14 11:22:00;;;;;;;20.70;4.93;;;;;;;12.94;82.71;99291.63;5060048;28;20205;-84
2023/11/14 11:24:28;;;;;;;12.97;3.70;;;;;;;12.81;84.05;99231.97;5052485;28;20207;-83
2023/11/14 11:27:20;;;;;;;10.53;3.67;;;;;;;13.06;83.77;99210.69;5058902;28;20233;-84